KVAD/VAD METAR and TAF weather

Enter ICAO airport designator
Station Type Date Time Source
KVAD METAR 2021/07/24 20:56 UTC NOAA

KVAD 242056Z AUTO 05010KT 10SM FEW050 32/20 A3001 RMK AO2 SLP162 T03210203 57012 $


Station Type Date Time Source
KVAD Decoded METAR 2021/07/24 20:56 UTC NOAA

Moody Air Force Base, GA, United States (KVAD) 30-58N 083-12W 71M
Jul 24, 2021 - 04:56 PM EDT / 2021.07.24 2056 UTC
Wind: from the NE (050 degrees) at 12 MPH (10 KT):0
Visibility: 10 mile(s):0
Sky conditions: mostly clear
Temperature: 89.8 F (32.1 C)
Dew Point: 68.5 F (20.3 C)
Relative Humidity: 49%
Pressure (altimeter): 30.01 in. Hg (1016 hPa)
Pressure tendency: 0.04 inches (1.2 hPa) lower than three hours ago
ob: KVAD 242056Z AUTO 05010KT 10SM FEW050 32/20 A3001 RMK AO2 SLP162 T03210203 57012
cycle: 21

Station Type Date Time Source
KVAD TAF 2021/07/23 23:04 UTC NOAA

TAF
AMD KVAD 232300Z 2323/2422 30009KT 9999 SCT030 QNH3003INS
BECMG 2323/2324 11004KT 9999 SCT040 QNH3003INS
BECMG 2405/2406 11004KT 9999 FEW040 QNH3002INS
BECMG 2411/2412 08006KT 9999 SKC QNH3000INS
BECMG 2421/2422 06006KT 9999 SKC QNH2997INS TX33/2418Z TN23/2408Z LAST NO
AMDS AFT 2323 NEXT 2608

Example: see airport list